Time;durP1;ratioP1;P1;durP2;ratioP2;P2;SDS_P1;SDS_P2;PMS_P1;PMS_P2;Temp;Humidity;BMP_temperature;BMP_pressure;BME280_temperature;BME280_humidity;BME280_pressure;Samples;Min_cycle;Max_cycle;Signal;HPM_P1;HPM_P2
2022/10/28 00:02:09;;;;;;;15.98;9.57;;;17.60;99.90;;;;;;5048295;28;20045;-92
2022/10/28 00:04:35;;;;;;;17.23;9.55;;;17.60;99.90;;;;;;5033012;28;20048;-92
2022/10/28 00:07:00;;;;;;;19.25;9.85;;;17.60;99.90;;;;;;5051933;28;20033;-92
2022/10/28 00:09:26;;;;;;;19.48;10.02;;;17.60;99.90;;;;;;5053400;28;20052;-92
2022/10/28 00:11:51;;;;;;;16.75;9.52;;;17.60;99.90;;;;;;5052532;28;20044;-91
2022/10/28 00:14:17;;;;;;;17.95;9.55;;;17.60;99.90;;;;;;5052532;28;20049;-92
2022/10/28 00:16:43;;;;;;;18.70;9.45;;;17.60;99.90;;;;;;5053139;28;20051;-92
2022/10/28 00:19:11;;;;;;;16.52;10.00;;;17.60;99.90;;;;;;5051940;28;20060;-92
2022/10/28 00:21:38;;;;;;;18.65;9.88;;;17.60;99.90;;;;;;5052797;28;20058;-91
2022/10/28 00:24:05;;;;;;;16.80;9.30;;;17.50;99.90;;;;;;5052536;28;20073;-92
2022/10/28 00:26:32;;;;;;;17.52;9.68;;;17.60;99.90;;;;;;5051466;28;20036;-92
2022/10/28 00:29:01;;;;;;;16.45;9.98;;;17.50;99.90;;;;;;5036393;28;20041;-92
2022/10/28 00:31:29;;;;;;;17.60;10.18;;;17.60;99.90;;;;;;5052088;28;20043;-92
2022/10/28 00:33:55;;;;;;;15.80;8.98;;;17.50;99.90;;;;;;5051939;28;20037;-92
2022/10/28 00:36:23;;;;;;;17.92;9.57;;;17.50;99.90;;;;;;5052609;28;20037;-92
2022/10/28 00:38:52;;;;;;;18.63;10.25;;;17.60;99.90;;;;;;5052087;28;20041;-92
2022/10/28 00:41:21;;;;;;;17.50;9.73;;;17.60;99.90;;;;;;5052368;28;20044;-92
2022/10/28 00:43:50;;;;;;;16.70;10.35;;;17.60;99.90;;;;;;5052582;28;20037;-92
2022/10/28 00:46:27;;;;;;;18.63;9.77;;;17.60;99.90;;;;;;5051136;28;20044;-92
2022/10/28 00:48:59;;;;;;;16.40;9.40;;;17.60;99.90;;;;;;5052846;28;20052;-92
2022/10/28 00:51:25;;;;;;;18.17;10.25;;;17.60;99.90;;;;;;5051817;28;20045;-92
2022/10/28 00:53:53;;;;;;;16.85;8.98;;;17.50;99.90;;;;;;5052242;28;20041;-92
2022/10/28 00:56:21;;;;;;;16.75;9.48;;;17.50;99.90;;;;;;5052509;28;20041;-91
2022/10/28 00:58:48;;;;;;;16.20;8.75;;;17.50;99.90;;;;;;5051556;28;20051;-92
2022/10/28 01:01:14;;;;;;;17.88;9.23;;;17.50;99.90;;;;;;5051898;28;20037;-92
2022/10/28 01:03:39;;;;;;;19.27;9.80;;;17.50;99.90;;;;;;5034391;28;20052;-92
2022/10/28 01:06:06;;;;;;;16.58;9.90;;;17.50;99.90;;;;;;5051684;28;20110;-91
2022/10/28 01:08:32;;;;;;;17.15;9.15;;;17.50;99.90;;;;;;5052339;28;20095;-92
2022/10/28 01:11:22;;;;;;;18.42;9.50;;;17.50;99.90;;;;;;5051775;28;20041;-92
2022/10/28 01:13:59;;;;;;;16.00;10.27;;;17.50;99.90;;;;;;5035142;28;20746;-92
2022/10/28 01:16:37;;;;;;;16.25;9.85;;;17.40;99.90;;;;;;5051030;28;20040;-92
2022/10/28 01:19:36;;;;;;;20.58;9.90;;;17.40;99.90;;;;;;5052020;28;20064;-92
2022/10/28 01:22:26;;;;;;;19.02;10.25;;;17.40;99.90;;;;;;5034502;28;20051;-91
2022/10/28 01:25:12;;;;;;;18.48;9.80;;;17.30;99.90;;;;;;5048633;28;20045;-91
2022/10/28 01:28:13;;;;;;;12.05;6.40;;;17.20;99.90;;;;;;5025943;28;20033;-91
2022/10/28 01:30:55;;;;;;;17.13;9.27;;;17.00;99.90;;;;;;5048771;28;20034;-91
2022/10/28 01:33:35;;;;;;;18.10;9.27;;;17.00;99.90;;;;;;5040461;28;20490;-92
2022/10/28 01:36:10;;;;;;;17.92;9.05;;;17.00;99.90;;;;;;5051922;28;20517;-92
2022/10/28 01:39:12;;;;;;;13.20;8.70;;;17.00;99.90;;;;;;5051177;28;20410;-92
2022/10/28 01:41:49;;;;;;;18.30;9.38;;;17.00;99.90;;;;;;5035098;28;20033;-92
2022/10/28 01:44:44;;;;;;;15.38;9.27;;;16.90;99.90;;;;;;5050714;28;20037;-92
2022/10/28 01:47:16;;;;;;;17.50;9.18;;;16.90;99.90;;;;;;5012605;28;20457;-92
2022/10/28 01:49:53;;;;;;;15.57;9.13;;;16.80;99.90;;;;;;5036174;28;20467;-92
2022/10/28 01:52:23;;;;;;;16.83;10.30;;;16.80;99.90;;;;;;5034119;28;20068;-91
2022/10/28 01:54:53;;;;;;;18.30;9.68;;;16.80;99.90;;;;;;5050757;28;20048;-91
2022/10/28 01:57:20;;;;;;;15.15;10.00;;;16.70;99.90;;;;;;5034622;28;20037;-91
2022/10/28 01:59:47;;;;;;;18.10;10.30;;;16.70;99.90;;;;;;5051377;28;20519;-92
2022/10/28 02:02:17;;;;;;;18.35;9.35;;;16.70;99.90;;;;;;5033226;28;20052;-91
2022/10/28 02:04:42;;;;;;;20.20;10.68;;;16.70;99.90;;;;;;5051203;28;20521;-92
2022/10/28 02:07:08;;;;;;;17.05;9.85;;;16.70;99.90;;;;;;5050268;28;20128;-92
2022/10/28 02:09:48;;;;;;;16.27;6.82;;;16.60;99.90;;;;;;5034715;28;20041;-92
2022/10/28 02:12:30;;;;;;;17.77;9.70;;;16.60;99.90;;;;;;5049956;28;20037;-92
2022/10/28 02:15:21;;;;;;;16.08;9.82;;;16.60;99.90;;;;;;5050468;28;20407;-92
2022/10/28 02:18:19;;;;;;;16.67;9.25;;;16.60;99.90;;;;;;5051179;28;20033;-92
2022/10/28 02:21:43;;;;;;;18.55;10.68;;;16.60;99.90;;;;;;5049697;28;20036;-92
2022/10/28 02:24:28;;;;;;;15.07;7.20;;;16.60;99.90;;;;;;4993283;28;20614;-92
2022/10/28 02:27:08;;;;;;;17.90;10.20;;;16.40;99.90;;;;;;5049115;28;20033;-91
2022/10/28 02:29:44;;;;;;;15.18;10.25;;;16.40;99.90;;;;;;5050951;28;20040;-92
2022/10/28 02:32:18;;;;;;;17.23;11.15;;;16.50;99.90;;;;;;5049559;28;20501;-92
2022/10/28 02:34:48;;;;;;;15.57;10.73;;;16.50;99.90;;;;;;5033329;28;20045;-91
2022/10/28 02:37:22;;;;;;;17.83;11.20;;;16.50;99.90;;;;;;5050944;28;20410;-91
2022/10/28 02:39:52;;;;;;;18.10;10.95;;;16.50;99.90;;;;;;5033074;28;20033;-92
2022/10/28 02:42:25;;;;;;;15.43;10.55;;;16.40;99.90;;;;;;5033840;28;20040;-92
2022/10/28 02:45:03;;;;;;;17.10;11.00;;;16.40;99.90;;;;;;5049735;28;20112;-92
2022/10/28 02:47:34;;;;;;;17.50;11.10;;;16.40;99.90;;;;;;5046804;28;20049;-91
2022/10/28 02:50:05;;;;;;;22.08;12.05;;;16.40;99.90;;;;;;5031024;28;20080;-92
2022/10/28 02:52:32;;;;;;;14.82;10.73;;;16.40;99.90;;;;;;5047383;28;20037;-91
2022/10/28 02:55:03;;;;;;;20.08;7.75;;;16.40;99.90;;;;;;5050214;28;20040;-91
2022/10/28 02:57:34;;;;;;;16.67;10.63;;;16.30;99.90;;;;;;5046947;28;20037;-91
2022/10/28 03:00:14;;;;;;;17.85;11.40;;;16.30;99.90;;;;;;5028573;28;20036;-91
2022/10/28 03:02:40;;;;;;;17.20;10.75;;;16.40;99.90;;;;;;5050030;28;20044;-92
2022/10/28 03:05:06;;;;;;;19.05;11.20;;;16.30;99.90;;;;;;5031723;28;20063;-92
2022/10/28 03:07:31;;;;;;;19.13;11.20;;;16.30;99.90;;;;;;5049928;28;20033;-92
2022/10/28 03:09:57;;;;;;;20.60;11.10;;;16.30;99.90;;;;;;5049453;28;20102;-91
2022/10/28 03:12:22;;;;;;;12.80;7.05;;;16.30;99.90;;;;;;5033167;28;20099;-92
2022/10/28 03:14:48;;;;;;;17.95;10.85;;;16.20;99.90;;;;;;5049010;28;20456;-92
2022/10/28 03:17:14;;;;;;;16.88;10.98;;;16.20;99.90;;;;;;5049993;28;20052;-92
2022/10/28 03:19:39;;;;;;;17.45;7.45;;;16.20;99.90;;;;;;5050180;28;20043;-92
2022/10/28 03:22:05;;;;;;;17.40;11.30;;;16.20;99.90;;;;;;5031976;28;20091;-92
2022/10/28 03:24:30;;;;;;;18.23;10.80;;;16.20;99.90;;;;;;5033695;28;20037;-91
2022/10/28 03:26:56;;;;;;;17.92;10.98;;;16.20;99.90;;;;;;5033102;28;20037;-92
2022/10/28 03:29:21;;;;;;;18.65;11.13;;;16.20;99.90;;;;;;5049016;28;20071;-91
2022/10/28 03:31:47;;;;;;;18.60;10.77;;;16.20;99.90;;;;;;5049427;28;20048;-90
2022/10/28 03:34:13;;;;;;;18.30;10.73;;;16.20;99.90;;;;;;5031782;28;20040;-92
2022/10/28 03:36:38;;;;;;;17.58;10.60;;;16.20;99.90;;;;;;5049732;28;20091;-91
2022/10/28 03:39:04;;;;;;;19.63;11.48;;;16.20;99.90;;;;;;5032795;28;20106;-92
2022/10/28 03:41:29;;;;;;;14.30;6.80;;;16.10;99.90;;;;;;5038578;28;20045;-91
2022/10/28 03:43:55;;;;;;;17.50;10.60;;;16.10;99.90;;;;;;5056030;28;20040;-92
2022/10/28 03:46:21;;;;;;;22.60;11.75;;;16.00;99.90;;;;;;5055825;28;20087;-92
2022/10/28 03:48:46;;;;;;;18.15;10.32;;;16.10;99.90;;;;;;5055775;28;20052;-92
2022/10/28 03:51:12;;;;;;;18.25;11.07;;;16.10;99.90;;;;;;5056046;28;20079;-92
2022/10/28 03:53:37;;;;;;;18.23;10.98;;;16.10;99.90;;;;;;5037588;28;20040;-91
2022/10/28 03:56:03;;;;;;;18.55;8.00;;;16.00;99.90;;;;;;5055893;28;20106;-91
2022/10/28 03:58:29;;;;;;;15.15;6.85;;;16.00;99.90;;;;;;5054577;28;20093;-91
2022/10/28 04:00:55;;;;;;;17.40;10.68;;;15.90;99.90;;;;;;5055568;28;20041;-91
2022/10/28 04:03:22;;;;;;;16.33;11.15;;;15.90;99.90;;;;;;5055209;28;20045;-91
2022/10/28 04:05:48;;;;;;;19.02;10.63;;;15.90;99.90;;;;;;5055031;28;20045;-92
2022/10/28 04:08:15;;;;;;;13.30;7.90;;;15.90;99.90;;;;;;5056135;28;20044;-92
2022/10/28 04:10:41;;;;;;;19.40;11.68;;;15.80;99.90;;;;;;5036931;28;20051;-92
2022/10/28 04:13:07;;;;;;;18.27;10.93;;;15.80;99.90;;;;;;5035421;28;20041;-91
2022/10/28 04:15:33;;;;;;;19.42;10.98;;;15.90;99.90;;;;;;5036285;28;20044;-92
2022/10/28 04:17:58;;;;;;;17.00;10.80;;;15.80;99.90;;;;;;5050175;28;20033;-91
2022/10/28 04:20:25;;;;;;;17.13;7.20;;;15.80;99.90;;;;;;5056525;28;20037;-92
2022/10/28 04:22:50;;;;;;;15.77;10.48;;;15.80;99.90;;;;;;5054677;28;20045;-91
2022/10/28 04:25:16;;;;;;;15.23;10.68;;;15.80;99.90;;;;;;5036311;28;20120;-91
2022/10/28 04:27:45;;;;;;;16.02;8.02;;;15.80;99.90;;;;;;5038723;28;20040;-92
2022/10/28 04:30:13;;;;;;;18.27;10.35;;;15.70;99.90;;;;;;5039022;28;20040;-92
2022/10/28 04:32:42;;;;;;;20.38;10.32;;;15.80;99.90;;;;;;5054926;28;20083;-92
2022/10/28 04:35:09;;;;;;;17.27;10.10;;;15.80;99.90;;;;;;5054688;28;20076;-92
2022/10/28 04:37:34;;;;;;;15.85;7.03;;;15.80;99.90;;;;;;5039499;28;20029;-92
2022/10/28 04:40:01;;;;;;;14.23;6.57;;;15.70;99.90;;;;;;5038689;28;20029;-91
2022/10/28 04:42:27;;;;;;;15.65;9.82;;;15.70;99.90;;;;;;5054784;28;20055;-92
2022/10/28 04:44:52;;;;;;;15.80;9.30;;;15.70;99.90;;;;;;5056110;28;20127;-92
2022/10/28 04:47:18;;;;;;;19.58;10.93;;;15.80;99.90;;;;;;5037312;28;20422;-91
2022/10/28 04:49:43;;;;;;;19.17;10.57;;;15.80;99.90;;;;;;5056105;28;20053;-92
2022/10/28 04:52:10;;;;;;;20.05;9.73;;;15.90;99.90;;;;;;5036822;28;20029;-92
2022/10/28 04:54:35;;;;;;;15.25;7.15;;;15.90;99.90;;;;;;5034951;28;20468;-92
2022/10/28 04:57:01;;;;;;;19.58;10.00;;;15.80;99.90;;;;;;5052605;28;20076;-92
2022/10/28 04:59:27;;;;;;;16.67;9.35;;;15.90;99.90;;;;;;5051805;28;20036;-92
2022/10/28 05:01:53;;;;;;;16.83;9.68;;;15.90;99.90;;;;;;5034956;28;20048;-91
2022/10/28 05:04:18;;;;;;;16.92;9.85;;;15.90;99.90;;;;;;5035733;28;20106;-92
2022/10/28 05:06:44;;;;;;;17.08;8.95;;;15.90;99.90;;;;;;5051820;28;20056;-92
2022/10/28 05:09:09;;;;;;;14.43;6.68;;;16.00;99.90;;;;;;5032651;28;20048;-92
2022/10/28 05:11:35;;;;;;;16.17;6.13;;;15.90;99.90;;;;;;5051428;28;20182;-92
2022/10/28 05:14:00;;;;;;;18.83;9.52;;;15.90;99.90;;;;;;5050106;28;20457;-91
2022/10/28 05:16:26;;;;;;;18.40;9.00;;;15.90;99.90;;;;;;5051491;28;20041;-92
2022/10/28 05:18:51;;;;;;;14.93;9.05;;;16.00;99.90;;;;;;5051297;28;20513;-92
2022/10/28 05:21:17;;;;;;;16.48;5.93;;;16.00;99.90;;;;;;5033396;28;20449;-91
2022/10/28 05:23:42;;;;;;;17.27;9.10;;;15.90;99.90;;;;;;5050733;28;20460;-92
2022/10/28 05:26:08;;;;;;;17.35;8.82;;;16.00;99.90;;;;;;5050177;28;20113;-91
2022/10/28 05:28:34;;;;;;;15.32;8.88;;;16.00;99.90;;;;;;5051012;28;20041;-92
2022/10/28 05:30:59;;;;;;;16.00;9.02;;;16.00;99.90;;;;;;5034511;28;20076;-92
2022/10/28 05:33:25;;;;;;;15.32;8.48;;;16.10;99.90;;;;;;5050035;28;20033;-92
2022/10/28 05:35:50;;;;;;;18.17;8.82;;;16.10;99.90;;;;;;5034130;28;20147;-91
2022/10/28 05:38:16;;;;;;;13.68;5.70;;;16.10;99.90;;;;;;5050829;28;20036;-92
2022/10/28 05:40:41;;;;;;;17.08;8.77;;;16.10;99.90;;;;;;5034142;28;20501;-91
2022/10/28 05:43:08;;;;;;;15.18;8.55;;;16.10;99.90;;;;;;5054274;28;20071;-92
2022/10/28 05:45:34;;;;;;;17.10;8.18;;;16.10;99.90;;;;;;5033731;28;20045;-92
2022/10/28 05:48:00;;;;;;;14.45;5.60;;;16.10;99.90;;;;;;5034390;28;20048;-92
2022/10/28 05:50:25;;;;;;;16.58;9.05;;;16.10;99.90;;;;;;5050967;28;20048;-92
2022/10/28 05:52:54;;;;;;;19.38;9.65;;;16.10;99.90;;;;;;5033029;28;20044;-92
2022/10/28 05:55:21;;;;;;;18.05;8.35;;;16.10;99.90;;;;;;5033989;28;20044;-92
2022/10/28 05:57:48;;;;;;;16.90;9.18;;;16.10;99.90;;;;;;5028858;28;20391;-92
2022/10/28 06:00:15;;;;;;;19.08;9.40;;;16.20;99.90;;;;;;5050570;28;20033;-92
2022/10/28 06:02:40;;;;;;;19.75;9.00;;;16.10;99.90;;;;;;5049107;28;20655;-92
2022/10/28 06:05:07;;;;;;;12.73;6.07;;;16.20;99.90;;;;;;5033984;28;20032;-92
2022/10/28 06:07:33;;;;;;;16.50;9.00;;;16.10;99.90;;;;;;5049880;28;20040;-92
2022/10/28 06:09:59;;;;;;;17.63;9.10;;;16.10;99.90;;;;;;5050112;28;20048;-92
2022/10/28 06:12:25;;;;;;;18.98;9.48;;;16.20;99.90;;;;;;5050301;28;20036;-92
2022/10/28 06:14:50;;;;;;;16.15;9.00;;;16.20;99.90;;;;;;5049289;28;20033;-92
2022/10/28 06:17:16;;;;;;;14.80;8.27;;;16.20;99.90;;;;;;5049974;28;20490;-92
2022/10/28 06:19:42;;;;;;;17.95;8.60;;;16.20;99.90;;;;;;5049454;28;20041;-92
2022/10/28 06:22:07;;;;;;;14.63;8.52;;;16.20;99.90;;;;;;5049204;28;20053;-92
2022/10/28 06:24:33;;;;;;;12.95;5.57;;;16.20;99.90;;;;;;5050738;28;20128;-92
2022/10/28 06:26:58;;;;;;;20.50;8.50;;;16.10;99.90;;;;;;5049303;28;20120;-91
2022/10/28 06:29:24;;;;;;;14.07;5.68;;;16.10;99.90;;;;;;5033869;28;20517;-92
2022/10/28 06:31:49;;;;;;;14.98;8.60;;;16.10;99.90;;;;;;5048886;28;20044;-92
2022/10/28 06:34:15;;;;;;;18.13;8.57;;;16.10;99.90;;;;;;5049659;28;20053;-92
2022/10/28 06:36:40;;;;;;;17.88;8.68;;;16.10;99.90;;;;;;5049153;28;20075;-91
2022/10/28 06:39:06;;;;;;;17.58;8.90;;;16.20;99.90;;;;;;5049129;28;20040;-92
2022/10/28 06:41:32;;;;;;;15.95;8.68;;;16.20;99.90;;;;;;5033454;28;20040;-92
2022/10/28 06:43:57;;;;;;;15.80;8.48;;;16.20;99.90;;;;;;5048995;28;20072;-92
2022/10/28 06:46:23;;;;;;;14.45;5.75;;;16.20;99.90;;;;;;5050053;28;20134;-92
2022/10/28 06:48:48;;;;;;;15.70;8.10;;;16.10;99.90;;;;;;5049427;28;20071;-92
2022/10/28 06:51:16;;;;;;;16.15;8.30;;;16.20;99.90;;;;;;5045728;28;20048;-92
2022/10/28 06:53:42;;;;;;;18.42;8.15;;;16.20;99.90;;;;;;5048951;28;20047;-92
2022/10/28 06:56:08;;;;;;;21.95;8.85;;;16.20;99.90;;;;;;5031435;28;20037;-91
2022/10/28 06:58:34;;;;;;;12.38;5.28;;;16.20;99.90;;;;;;5049734;28;20033;-92
2022/10/28 07:01:04;;;;;;;16.65;7.57;;;16.20;99.90;;;;;;5032958;28;20040;-91
2022/10/28 07:03:31;;;;;;;17.00;7.60;;;16.20;99.90;;;;;;5048343;28;20040;-92
2022/10/28 07:05:57;;;;;;;16.45;7.93;;;16.30;99.90;;;;;;5049777;28;20049;-92
2022/10/28 07:08:22;;;;;;;15.23;8.00;;;16.30;99.90;;;;;;5032050;28;20091;-91
2022/10/28 07:10:56;;;;;;;16.23;7.95;;;16.40;99.90;;;;;;5048889;28;20068;-92
2022/10/28 07:13:25;;;;;;;17.00;5.32;;;16.40;99.90;;;;;;5048033;28;20504;-92
2022/10/28 07:15:52;;;;;;;12.75;4.60;;;16.40;99.90;;;;;;5047471;28;20082;-91
2022/10/28 07:18:17;;;;;;;14.25;7.50;;;16.40;99.90;;;;;;5032359;28;20090;-92
2022/10/28 07:20:43;;;;;;;17.13;7.80;;;16.40;99.90;;;;;;5048568;28;20052;-93
2022/10/28 07:23:08;;;;;;;17.80;8.00;;;16.60;99.90;;;;;;5048685;28;20052;-91
2022/10/28 07:25:34;;;;;;;16.23;7.20;;;16.60;99.90;;;;;;5049319;28;20037;-92
2022/10/28 07:28:00;;;;;;;15.90;7.45;;;16.70;99.90;;;;;;5056489;28;20520;-92
2022/10/28 07:30:27;;;;;;;11.63;5.18;;;16.70;99.90;;;;;;5050472;28;20072;-92
2022/10/28 07:32:52;;;;;;;19.73;8.15;;;16.70;99.90;;;;;;5047411;28;20025;-92
2022/10/28 07:35:18;;;;;;;15.60;7.32;;;16.80;99.90;;;;;;5048558;28;20130;-92
2022/10/28 07:37:44;;;;;;;16.83;7.50;;;16.80;99.90;;;;;;5048062;28;20040;-92
2022/10/28 07:40:10;;;;;;;17.63;7.55;;;16.90;99.90;;;;;;5048027;28;20045;-92
2022/10/28 07:42:35;;;;;;;19.08;8.30;;;17.00;99.90;;;;;;5048644;28;20558;-92
2022/10/28 07:45:01;;;;;;;15.93;7.65;;;17.00;99.90;;;;;;5048208;28;20498;-92
2022/10/28 07:47:27;;;;;;;16.67;7.55;;;17.00;99.90;;;;;;5048508;28;20063;-92
2022/10/28 07:49:55;;;;;;;18.52;7.78;;;17.10;99.90;;;;;;5055157;28;20110;-92
2022/10/28 07:52:21;;;;;;;17.20;7.50;;;17.10;99.90;;;;;;5039776;28;20656;-93
2022/10/28 07:54:47;;;;;;;19.52;7.88;;;17.10;99.90;;;;;;5040087;28;20048;-92
2022/10/28 07:57:13;;;;;;;14.80;7.13;;;17.20;99.90;;;;;;5054946;28;20036;-92
2022/10/28 07:59:38;;;;;;;14.77;5.15;;;17.20;99.90;;;;;;5041459;28;20060;-92
2022/10/28 08:02:05;;;;;;;18.15;7.38;;;17.20;99.90;;;;;;5057877;28;20526;-92
2022/10/28 08:04:31;;;;;;;14.52;7.20;;;17.30;99.90;;;;;;5040618;28;20039;-92
2022/10/28 08:06:57;;;;;;;16.80;6.75;;;17.30;99.90;;;;;;5041709;28;20064;-92
2022/10/28 08:09:23;;;;;;;13.15;4.85;;;17.40;99.90;;;;;;5059130;28;20130;-92
2022/10/28 08:11:49;;;;;;;14.52;6.93;;;17.40;99.90;;;;;;5057670;28;20037;-92
2022/10/28 08:14:14;;;;;;;18.45;7.57;;;17.50;99.90;;;;;;5057506;28;20044;-92
2022/10/28 08:16:40;;;;;;;15.88;7.63;;;17.50;99.90;;;;;;5057125;28;20033;-91
2022/10/28 08:19:05;;;;;;;14.45;6.82;;;17.60;99.90;;;;;;5048478;28;20491;-92
2022/10/28 08:21:31;;;;;;;16.08;6.85;;;17.60;99.90;;;;;;5059876;28;20486;-92
2022/10/28 08:23:57;;;;;;;16.58;7.47;;;17.70;99.90;;;;;;5048026;28;20071;-92
2022/10/28 08:26:22;;;;;;;17.33;7.13;;;17.70;99.90;;;;;;5022022;28;20120;-92
2022/10/28 08:28:48;;;;;;;17.25;7.70;;;17.80;99.90;;;;;;5044053;28;20498;-92
2022/10/28 08:31:13;;;;;;;17.38;7.35;;;17.80;99.90;;;;;;5059953;28;20579;-92
2022/10/28 08:33:43;;;;;;;16.83;6.82;;;17.80;99.90;;;;;;5040988;28;20025;-92
2022/10/28 08:36:14;;;;;;;16.02;5.05;;;17.90;99.90;;;;;;5051565;28;20447;-92
2022/10/28 08:38:41;;;;;;;15.50;7.28;;;17.90;99.90;;;;;;5035533;28;20128;-92
2022/10/28 08:41:28;;;;;;;15.93;6.88;;;17.90;99.90;;;;;;5035014;28;20040;-92
2022/10/28 08:44:31;;;;;;;16.58;7.22;;;18.00;99.90;;;;;;5035311;28;20461;-92
2022/10/28 08:47:11;;;;;;;12.20;5.63;;;18.00;99.90;;;;;;5051125;28;20060;-91
2022/10/28 08:49:40;;;;;;;21.33;7.03;;;18.00;99.90;;;;;;5035552;28;20082;-92
2022/10/28 08:52:30;;;;;;;17.73;7.03;;;18.20;99.90;;;;;;5033934;28;20037;-92
2022/10/28 08:55:01;;;;;;;16.33;6.93;;;18.30;99.90;;;;;;5032179;28;20560;-92
2022/10/28 08:57:41;;;;;;;15.63;7.35;;;18.30;99.90;;;;;;5022231;28;20082;-93
2022/10/28 09:00:26;;;;;;;14.25;6.28;;;18.40;99.90;;;;;;5015658;28;20510;-92
2022/10/28 09:03:17;;;;;;;19.00;7.07;;;18.50;99.90;;;;;;5038256;28;20037;-92
2022/10/28 09:05:46;;;;;;;15.88;7.75;;;18.60;99.90;;;;;;5052004;28;20532;-92
2022/10/28 09:08:34;;;;;;;17.00;7.10;;;18.70;99.90;;;;;;5051231;28;20053;-93
2022/10/28 09:11:06;;;;;;;16.08;6.57;;;18.80;99.90;;;;;;5051301;28;20412;-92
2022/10/28 09:13:50;;;;;;;14.73;6.90;;;18.90;99.90;;;;;;5052786;28;20877;-92
2022/10/28 09:16:16;;;;;;;16.80;6.88;;;19.00;99.90;;;;;;5041858;28;20040;-92
2022/10/28 09:19:01;;;;;;;17.90;6.85;;;19.00;99.90;;;;;;5059071;28;20043;-92
2022/10/28 09:21:34;;;;;;;16.80;6.53;;;19.10;99.90;;;;;;5050863;28;20108;-92
2022/10/28 09:24:10;;;;;;;16.83;6.43;;;19.10;99.90;;;;;;5050917;28;20064;-92
2022/10/28 09:26:58;;;;;;;18.13;7.43;;;19.10;99.90;;;;;;5050533;28;20137;-92
2022/10/28 09:29:49;;;;;;;17.25;7.07;;;19.10;99.90;;;;;;5051335;28;20592;-92
2022/10/28 09:32:56;;;;;;;14.98;6.68;;;19.10;99.90;;;;;;5028148;28;20492;-93
2022/10/28 09:35:25;;;;;;;15.00;7.07;;;19.10;99.90;;;;;;5016233;28;20507;-92
2022/10/28 09:38:04;;;;;;;15.10;7.55;;;19.10;99.90;;;;;;5042744;28;20276;-93
2022/10/28 09:40:33;;;;;;;17.38;7.75;;;19.10;99.90;;;;;;5042054;28;20037;-93
2022/10/28 09:43:17;;;;;;;17.17;6.82;;;19.10;99.90;;;;;;5040228;28;20033;-92
2022/10/28 09:45:47;;;;;;;17.45;7.03;;;19.10;99.90;;;;;;5046238;28;20132;-92
2022/10/28 09:48:24;;;;;;;18.60;7.10;;;19.10;99.90;;;;;;5050453;28;20029;-93
2022/10/28 09:50:51;;;;;;;16.02;6.80;;;19.10;99.90;;;;;;5048931;28;20529;-92
2022/10/28 09:53:52;;;;;;;18.85;7.93;;;19.10;99.90;;;;;;5050143;28;20485;-93
2022/10/28 09:56:18;;;;;;;15.15;7.78;;;19.10;99.90;;;;;;5049470;28;20045;-92
2022/10/28 09:58:47;;;;;;;17.95;7.38;;;19.10;99.90;;;;;;5049871;28;20433;-92
2022/10/28 10:01:15;;;;;;;15.80;7.28;;;19.10;99.90;;;;;;5050696;28;20037;-92
2022/10/28 10:03:42;;;;;;;18.38;7.22;;;19.10;99.90;;;;;;5033158;28;20051;-92
2022/10/28 10:06:17;;;;;;;17.55;7.65;;;19.20;99.90;;;;;;5050665;28;20079;-92
2022/10/28 10:08:44;;;;;;;14.98;7.25;;;19.20;99.90;;;;;;5036346;28;20530;-92
2022/10/28 10:11:41;;;;;;;21.42;7.15;;;19.20;99.90;;;;;;5049996;28;20036;-93
2022/10/28 10:14:10;;;;;;;15.65;6.80;;;19.20;99.90;;;;;;5049327;28;20033;-92
2022/10/28 10:16:40;;;;;;;17.33;7.10;;;19.30;99.90;;;;;;5049721;28;20041;-92
2022/10/28 10:19:08;;;;;;;15.30;7.18;;;19.30;99.90;;;;;;5050581;28;20398;-92
2022/10/28 10:21:47;;;;;;;15.20;6.22;;;19.40;99.90;;;;;;5049561;28;20060;-92
2022/10/28 10:24:31;;;;;;;15.57;6.63;;;19.40;99.90;;;;;;5033361;28;20041;-92
2022/10/28 10:27:19;;;;;;;14.02;6.45;;;19.50;99.90;;;;;;5049057;28;20490;-92
2022/10/28 10:29:49;;;;;;;16.70;6.90;;;19.60;99.90;;;;;;5049377;28;20066;-92
2022/10/28 10:32:23;;;;;;;14.98;6.90;;;19.60;99.90;;;;;;5049603;28;20712;-92
2022/10/28 10:35:00;;;;;;;20.92;6.70;;;19.80;99.90;;;;;;5033727;28;20051;-92
2022/10/28 10:37:28;;;;;;;17.40;6.68;;;19.80;99.90;;;;;;5048879;28;20067;-93
2022/10/28 10:40:22;;;;;;;15.05;5.82;;;20.00;99.90;;;;;;5054342;28;20062;-92
2022/10/28 10:42:48;;;;;;;16.75;6.03;;;20.10;99.90;;;;;;5058334;28;20045;-92
2022/10/28 10:45:14;;;;;;;13.82;5.43;;;20.20;99.90;;;;;;5040982;28;20422;-92
2022/10/28 10:47:40;;;;;;;19.30;7.78;;;20.30;99.90;;;;;;5060985;28;20040;-92
2022/10/28 10:50:29;;;;;;;18.02;6.05;;;20.30;99.90;;;;;;5068511;28;20072;-92
2022/10/28 10:52:58;;;;;;;16.75;5.97;;;20.30;99.90;;;;;;5048453;28;20076;-92
2022/10/28 10:55:35;;;;;;;17.08;6.45;;;20.30;99.90;;;;;;5049331;28;20427;-92
2022/10/28 10:58:03;;;;;;;16.98;6.22;;;20.40;99.90;;;;;;5041866;28;20485;-92
2022/10/28 11:00:34;;;;;;;19.58;6.47;;;20.30;99.90;;;;;;5049375;28;20052;-92
2022/10/28 11:03:00;;;;;;;14.32;5.95;;;20.40;99.90;;;;;;5031900;28;20559;-92
2022/10/28 11:05:27;;;;;;;17.20;5.57;;;20.50;99.90;;;;;;5048804;28;20048;-92
2022/10/28 11:07:53;;;;;;;18.23;6.45;;;20.40;99.90;;;;;;5049740;28;20045;-92
2022/10/28 11:10:28;;;;;;;15.35;5.60;;;20.50;99.90;;;;;;5032070;28;20142;-93
2022/10/28 11:13:22;;;;;;;15.88;5.80;;;20.60;99.90;;;;;;5052314;28;20044;-92
2022/10/28 11:15:59;;;;;;;17.58;6.15;;;20.60;99.90;;;;;;5013594;28;20379;-92
2022/10/28 11:18:25;;;;;;;15.95;6.07;;;20.60;99.90;;;;;;5031384;28;20048;-93
2022/10/28 11:21:17;;;;;;;17.33;6.90;;;20.60;99.90;;;;;;5050058;28;20577;-92
2022/10/28 11:23:45;;;;;;;19.77;6.38;;;20.70;99.90;;;;;;5021159;28;20052;-92
2022/10/28 11:26:14;;;;;;;17.88;6.32;;;20.80;99.90;;;;;;5049512;28;20160;-93
2022/10/28 11:28:56;;;;;;;15.77;6.65;;;20.90;99.90;;;;;;5031786;28;20048;-93
2022/10/28 11:31:47;;;;;;;16.52;6.65;;;21.00;99.90;;;;;;5050488;28;20383;-92
2022/10/28 11:34:44;;;;;;;17.55;6.07;;;21.10;99.90;;;;;;5031921;28;20049;-93
2022/10/28 11:37:21;;;;;;;16.67;5.97;;;21.20;99.90;;;;;;5030061;28;20411;-92
2022/10/28 11:40:19;;;;;;;17.30;5.80;;;21.30;99.90;;;;;;5035636;28;20033;-92
2022/10/28 11:43:11;;;;;;;12.80;5.70;;;21.40;99.90;;;;;;5055639;28;20041;-93
2022/10/28 11:45:56;;;;;;;17.42;5.80;;;21.40;99.90;;;;;;5032386;28;20041;-92
2022/10/28 11:48:25;;;;;;;14.07;5.63;;;21.40;99.90;;;;;;5048526;28;20075;-92
2022/10/28 11:51:05;;;;;;;15.80;6.05;;;21.40;99.90;;;;;;5049429;28;20076;-92
2022/10/28 11:53:57;;;;;;;16.35;5.75;;;21.50;99.90;;;;;;5031025;28;20037;-92
2022/10/28 11:56:35;;;;;;;15.75;6.07;;;21.60;99.90;;;;;;5049192;28;20048;-92
2022/10/28 11:59:06;;;;;;;15.30;5.82;;;21.70;99.90;;;;;;5049355;28;20069;-93
2022/10/28 12:01:56;;;;;;;17.00;6.13;;;21.80;99.90;;;;;;5050222;28;20463;-92
2022/10/28 12:04:55;;;;;;;18.98;5.53;;;21.80;99.90;;;;;;5035033;28;20082;-93
2022/10/28 12:07:45;;;;;;;15.18;5.40;;;21.80;99.90;;;;;;5052848;28;20083;-92
2022/10/28 12:10:10;;;;;;;15.10;6.20;;;21.80;99.90;;;;;;5051781;28;20043;-92
2022/10/28 12:13:02;;;;;;;17.23;5.65;;;21.80;99.90;;;;;;5052888;28;20041;-92
2022/10/28 12:15:52;;;;;;;17.30;6.22;;;21.90;99.90;;;;;;5052199;28;20028;-92
2022/10/28 12:18:36;;;;;;;19.02;5.85;;;21.90;99.90;;;;;;5052310;28;20048;-92
2022/10/28 12:21:13;;;;;;;16.70;6.07;;;21.80;99.90;;;;;;5051812;28;20397;-92
2022/10/28 12:23:41;;;;;;;15.90;6.07;;;21.80;99.90;;;;;;5051752;28;20033;-92
2022/10/28 12:26:11;;;;;;;17.38;5.93;;;21.80;99.90;;;;;;5035311;28;20052;-93
2022/10/28 12:28:40;;;;;;;13.55;5.68;;;21.90;99.90;;;;;;5051562;28;20049;-92
2022/10/28 12:31:16;;;;;;;14.48;5.97;;;22.00;99.90;;;;;;5052622;28;20076;-92
2022/10/28 12:33:46;;;;;;;17.70;6.25;;;22.00;99.90;;;;;;5034523;28;20144;-92
2022/10/28 12:36:30;;;;;;;15.00;5.75;;;22.00;99.90;;;;;;5036208;28;20045;-92
2022/10/28 12:38:59;;;;;;;16.15;6.32;;;22.00;99.90;;;;;;5035047;28;20082;-92
2022/10/28 12:41:57;;;;;;;16.58;6.38;;;22.00;99.90;;;;;;5051843;28;20076;-92
2022/10/28 12:44:24;;;;;;;17.25;5.78;;;22.00;99.90;;;;;;5051341;28;20067;-92
2022/10/28 12:47:16;;;;;;;19.70;6.47;;;22.00;99.90;;;;;;5051424;28;20064;-92
2022/10/28 12:50:00;;;;;;;17.37;6.40;;;22.00;99.90;;;;;;5050867;28;20073;-92
2022/10/28 12:52:29;;;;;;;18.75;6.25;;;22.00;99.90;;;;;;5051533;28;20979;-92
2022/10/28 12:55:03;;;;;;;16.40;5.90;;;21.90;99.90;;;;;;5052211;28;20412;-92
2022/10/28 12:57:33;;;;;;;16.08;5.95;;;21.90;99.90;;;;;;5032803;28;20413;-92
2022/10/28 13:00:34;;;;;;;19.38;6.28;;;21.90;99.90;;;;;;5035411;28;20033;-93